Terminal Aerodrome Forecast
Issued by NWS

Home | Current Version | Previous Version | Graphics & Text | Print | Product List | Glossary On
Versions: 1 2 3 4 5 6 7 8 9 10 11 12 13 14 15 16 17 18 19 20 21 22 23 24 25 26 27 28 29 30 31 32 33 34 35 36
789
FTUS43 KGRB 282338
TAFRHI
TAF
KRHI 282338Z 2900/2924 27012G20KT P6SM VCSH BKN050 BKN090
     FM290200 25007KT P6SM BKN050
     FM291000 25008KT P6SM VCSH BKN025 OVC040
     FM291200 26010G17KT P6SM VCSH OVC015
     FM291600 26014G22KT P6SM VCSH OVC012
     FM292100 26012G20KT 4SM -RA BR OVC009=

USA.gov is the U.S. government's official web portal to all federal, state and local government web resources and services.